Little Rock, AR (72221)

10:21 AM CST on January 25, 2015 (GMT -0600)
Walnut Grove | Change Station
CLOSE
Current Station
Personal Weather Station
Location: Little Rock, AR
Elevation: 413 ft
Nearby Weather Stations
Active Advisory: Lake Wind Advisory

Elev 413 ft 34.77 °N, 92.52 °W | Updated 2 seconds ago

Partly Cloudy
Partly Cloudy
58.5 °F
Feels Like 58.5 °F
N
8.1
Wind Variable Wind from WNW
Gusts 8.1 mph

Today
High -- | Low -- °F
--% Chance of Precip.
Yesterday
High -- | Low -- °F
Precip. -- in
7:13 AM 5:32 PM
Waxing Crescent, 33% visible
Pressure 29.78 in
Visibility 10.0 miles
Clouds Few 8500 ft
Dew Point 35 °F
Humidity 42%
Rainfall 0.00 in
Snow Depth Not available.
UV 2 out of 12
Pollen 5.10 out of 12
Air Quality Not available.
Flu Activity Not available.
METAR KLIT 251553Z 25010KT 10SM FEW085 11/02 A2977 RMK AO2 SLP084 T01060022

More Conditions Fewer Conditions

Pressure 29.78 in
Visibility 10.0 miles
Clouds Few 8500 ft
Dew Point 35 °F
Humidity 42%
Rainfall 0.00 in
Snow Depth Not available.
UV 2 out of 12
Pollen 5.10 out of 12
Air Quality Not available.
Flu Activity Not available.
METAR KLIT 251553Z 25010KT 10SM FEW085 11/02 A2977 RMK AO2 SLP084 T01060022

More Conditions Fewer Conditions

10-Day Weather Forecast

Almanac

Astronomy

Jan. 25, 2015 Rise Set
Actual Time
Civil Twilight
Nautical Twilight
Astronomical Twilight
Moon
Length of Visible Light
Length of Day
Tomorrow will be .
, % of the Moon is Illuminated

Today's Extremes

State Highs State Lows

Community

WunderPhotos

Upload Photos

1,789,952 photos uploaded!

WunderBlogs® & News

Nearby

Air Quality

  Air Quality AQ Index Pollutant
Not available.

Snow Depth

Station Depth Elevation

Earthquake Activity

City Distance Mag. Time & Date
Minimum magnitude displayed is 2.5.

Coastal Water Temperatures

Place Temperature

Nearby Weather Stations